Decoded Metar for LFSG (EPINAL in FRANCE) (IATA:EPL) | Meteo·Mobile Aviation Weather
aviador You're here:

LFSG Decoded Metar

EPINAL in FRANCE
Report Time2018-10-17 05:00:00
UTC Time2018-10-17 05:32:59
Flight Rules vfr VFR
Wind220° at 03 kt
W.Decomp.*RWY 26: 2.3 kt HW 2 kt LCW
W.Rank220° ranks 4
Current wind is below 220° avg. (8.0)
Visibility9999 m
Phenomena:N/A
Clouds:N/A
Expected CloudBase > 400 ft AGL from Temp-Dew spread
CeilingNone
Temp06°C (ISA -7)
Dew Point05°C (93% RH)
AAT3.8°C
QNH1018 hPa
Density Alt213 ft
Elevation1,083 ft
Report Wrong Elevation
Raw Report
METAR LFSG 170500Z AUTO 22003KT CAVOK 06/05 Q1018=

Extra information for LFSG:More info

Metar Taf Metar & Taf Last 4 Metars F.Rules Stats Wind Profile Meteogram Temp Stats Airport Information Weather charts Add Link Nearby VenuesMetar ALERT Operation Metar Decoded Social comments